sensor_id;sensor_type;location;lat;lon;timestamp;temperature;humidity
22249;DHT22;67538;52.180;5.646;2023-05-16T00:01:59;9.00;99.90
22249;DHT22;67538;52.180;5.646;2023-05-16T00:04:29;9.00;99.90
22249;DHT22;67538;52.180;5.646;2023-05-16T00:06:57;9.00;99.90
22249;DHT22;67538;52.180;5.646;2023-05-16T00:09:24;9.00;99.90
22249;DHT22;67538;52.180;5.646;2023-05-16T00:11:51;8.90;99.90
22249;DHT22;67538;52.180;5.646;2023-05-16T00:14:18;8.90;99.90
22249;DHT22;67538;52.180;5.646;2023-05-16T00:16:46;8.90;99.90
22249;DHT22;67538;52.180;5.646;2023-05-16T00:19:13;8.90;99.90
22249;DHT22;67538;52.180;5.646;2023-05-16T00:21:41;8.90;99.90
22249;DHT22;67538;52.180;5.646;2023-05-16T00:24:09;8.80;99.90
22249;DHT22;67538;52.180;5.646;2023-05-16T00:26:36;8.80;99.90
22249;DHT22;67538;52.180;5.646;2023-05-16T00:29:03;8.80;99.90
22249;DHT22;67538;52.180;5.646;2023-05-16T00:31:31;8.70;99.90
22249;DHT22;67538;52.180;5.646;2023-05-16T00:33:58;8.70;99.90
22249;DHT22;67538;52.180;5.646;2023-05-16T00:36:25;8.70;99.90
22249;DHT22;67538;52.180;5.646;2023-05-16T00:38:54;8.60;99.90
22249;DHT22;67538;52.180;5.646;2023-05-16T00:41:22;8.60;99.90
22249;DHT22;67538;52.180;5.646;2023-05-16T00:43:49;8.50;99.90
22249;DHT22;67538;52.180;5.646;2023-05-16T00:46:16;8.50;99.90
22249;DHT22;67538;52.180;5.646;2023-05-16T00:48:44;8.50;99.90
22249;DHT22;67538;52.180;5.646;2023-05-16T00:51:11;8.40;99.90
22249;DHT22;67538;52.180;5.646;2023-05-16T00:53:38;8.40;99.90
22249;DHT22;67538;52.180;5.646;2023-05-16T00:56:07;8.40;99.90
22249;DHT22;67538;52.180;5.646;2023-05-16T00:58:34;8.40;99.90
22249;DHT22;67538;52.180;5.646;2023-05-16T01:01:02;8.30;99.90
22249;DHT22;67538;52.180;5.646;2023-05-16T01:03:29;8.30;99.90
22249;DHT22;67538;52.180;5.646;2023-05-16T01:05:57;8.30;99.90
22249;DHT22;67538;52.180;5.646;2023-05-16T01:08:24;8.30;99.90
22249;DHT22;67538;52.180;5.646;2023-05-16T01:10:59;8.30;99.90
22249;DHT22;67538;52.180;5.646;2023-05-16T01:13:38;8.20;99.90
22249;DHT22;67538;52.180;5.646;2023-05-16T01:16:11;8.20;99.90
22249;DHT22;67538;52.180;5.646;2023-05-16T01:18:44;8.20;99.90
22249;DHT22;67538;52.180;5.646;2023-05-16T01:21:18;8.20;99.90
22249;DHT22;67538;52.180;5.646;2023-05-16T01:23:52;8.30;99.90
22249;DHT22;67538;52.180;5.646;2023-05-16T01:26:25;8.30;99.90
22249;DHT22;67538;52.180;5.646;2023-05-16T01:28:53;8.40;99.90
22249;DHT22;67538;52.180;5.646;2023-05-16T01:31:21;8.30;99.90
22249;DHT22;67538;52.180;5.646;2023-05-16T01:33:48;8.40;99.90
22249;DHT22;67538;52.180;5.646;2023-05-16T01:36:23;8.30;99.90
22249;DHT22;67538;52.180;5.646;2023-05-16T01:38:58;8.30;99.90
22249;DHT22;67538;52.180;5.646;2023-05-16T01:41:34;8.30;99.90
22249;DHT22;67538;52.180;5.646;2023-05-16T01:44:10;8.20;99.90
22249;DHT22;67538;52.180;5.646;2023-05-16T01:46:41;8.20;99.90
22249;DHT22;67538;52.180;5.646;2023-05-16T01:49:15;8.20;99.90
22249;DHT22;67538;52.180;5.646;2023-05-16T01:51:46;8.10;99.90
22249;DHT22;67538;52.180;5.646;2023-05-16T01:54:17;8.10;99.90
22249;DHT22;67538;52.180;5.646;2023-05-16T01:56:50;8.10;99.90
22249;DHT22;67538;52.180;5.646;2023-05-16T01:59:18;8.10;99.90
22249;DHT22;67538;52.180;5.646;2023-05-16T02:01:46;8.10;99.90
22249;DHT22;67538;52.180;5.646;2023-05-16T02:04:13;8.10;99.90
22249;DHT22;67538;52.180;5.646;2023-05-16T02:06:40;8.00;99.90
22249;DHT22;67538;52.180;5.646;2023-05-16T02:09:07;8.00;99.90
22249;DHT22;67538;52.180;5.646;2023-05-16T02:11:35;7.90;99.90
22249;DHT22;67538;52.180;5.646;2023-05-16T02:14:03;7.90;99.90
22249;DHT22;67538;52.180;5.646;2023-05-16T02:16:30;8.00;99.90
22249;DHT22;67538;52.180;5.646;2023-05-16T02:18:57;8.00;99.90
22249;DHT22;67538;52.180;5.646;2023-05-16T02:21:24;8.10;99.90
22249;DHT22;67538;52.180;5.646;2023-05-16T02:23:51;8.10;99.90
22249;DHT22;67538;52.180;5.646;2023-05-16T02:26:18;8.10;99.90
22249;DHT22;67538;52.180;5.646;2023-05-16T02:28:46;8.10;99.90
22249;DHT22;67538;52.180;5.646;2023-05-16T02:31:26;8.20;99.90
22249;DHT22;67538;52.180;5.646;2023-05-16T02:33:53;8.20;99.90
22249;DHT22;67538;52.180;5.646;2023-05-16T02:36:20;8.30;99.90
22249;DHT22;67538;52.180;5.646;2023-05-16T02:38:47;8.30;99.90
22249;DHT22;67538;52.180;5.646;2023-05-16T02:41:14;8.20;99.90
22249;DHT22;67538;52.180;5.646;2023-05-16T02:43:41;8.10;99.90
22249;DHT22;67538;52.180;5.646;2023-05-16T02:46:22;8.10;99.90
22249;DHT22;67538;52.180;5.646;2023-05-16T02:48:51;8.10;99.90
22249;DHT22;67538;52.180;5.646;2023-05-16T02:51:20;8.20;99.90
22249;DHT22;67538;52.180;5.646;2023-05-16T02:53:47;8.20;99.90
22249;DHT22;67538;52.180;5.646;2023-05-16T02:56:14;8.20;99.90
22249;DHT22;67538;52.180;5.646;2023-05-16T02:58:42;8.20;99.90
22249;DHT22;67538;52.180;5.646;2023-05-16T03:01:09;8.20;99.90
22249;DHT22;67538;52.180;5.646;2023-05-16T03:03:36;8.20;99.90
22249;DHT22;67538;52.180;5.646;2023-05-16T03:06:05;8.30;99.90
22249;DHT22;67538;52.180;5.646;2023-05-16T03:08:32;8.30;99.90
22249;DHT22;67538;52.180;5.646;2023-05-16T03:10:59;8.30;99.90
22249;DHT22;67538;52.180;5.646;2023-05-16T03:13:26;8.30;99.90
22249;DHT22;67538;52.180;5.646;2023-05-16T03:15:55;8.40;99.90
22249;DHT22;67538;52.180;5.646;2023-05-16T03:18:22;8.30;99.90
22249;DHT22;67538;52.180;5.646;2023-05-16T03:20:49;8.30;99.90
22249;DHT22;67538;52.180;5.646;2023-05-16T03:23:18;8.30;99.90
22249;DHT22;67538;52.180;5.646;2023-05-16T03:25:45;8.40;99.90
22249;DHT22;67538;52.180;5.646;2023-05-16T03:28:13;8.30;99.90
22249;DHT22;67538;52.180;5.646;2023-05-16T03:30:40;8.30;99.90
22249;DHT22;67538;52.180;5.646;2023-05-16T03:33:07;8.20;99.90
22249;DHT22;67538;52.180;5.646;2023-05-16T03:35:34;8.20;99.90
22249;DHT22;67538;52.180;5.646;2023-05-16T03:38:02;8.20;99.90
22249;DHT22;67538;52.180;5.646;2023-05-16T03:40:30;8.20;99.90
22249;DHT22;67538;52.180;5.646;2023-05-16T03:42:57;8.10;99.90
22249;DHT22;67538;52.180;5.646;2023-05-16T03:45:24;8.10;99.90
22249;DHT22;67538;52.180;5.646;2023-05-16T03:47:51;8.10;99.90
22249;DHT22;67538;52.180;5.646;2023-05-16T03:50:19;8.00;99.90
22249;DHT22;67538;52.180;5.646;2023-05-16T03:52:46;8.00;99.90
22249;DHT22;67538;52.180;5.646;2023-05-16T03:55:13;8.00;99.90
22249;DHT22;67538;52.180;5.646;2023-05-16T03:57:42;8.00;99.90
22249;DHT22;67538;52.180;5.646;2023-05-16T04:00:10;8.00;99.90
22249;DHT22;67538;52.180;5.646;2023-05-16T04:02:38;8.00;99.90
22249;DHT22;67538;52.180;5.646;2023-05-16T04:05:07;8.00;99.90
22249;DHT22;67538;52.180;5.646;2023-05-16T04:07:34;8.00;99.90
22249;DHT22;67538;52.180;5.646;2023-05-16T04:10:02;8.10;99.90
22249;DHT22;67538;52.180;5.646;2023-05-16T04:12:29;8.10;99.90
22249;DHT22;67538;52.180;5.646;2023-05-16T04:14:57;8.10;99.90
22249;DHT22;67538;52.180;5.646;2023-05-16T04:17:24;8.20;99.90
22249;DHT22;67538;52.180;5.646;2023-05-16T04:19:51;8.20;99.90
22249;DHT22;67538;52.180;5.646;2023-05-16T04:22:20;8.20;99.90
22249;DHT22;67538;52.180;5.646;2023-05-16T04:24:47;8.20;99.90
22249;DHT22;67538;52.180;5.646;2023-05-16T04:27:14;8.20;99.90
22249;DHT22;67538;52.180;5.646;2023-05-16T04:29:41;8.10;99.90
22249;DHT22;67538;52.180;5.646;2023-05-16T04:32:10;8.10;99.90
22249;DHT22;67538;52.180;5.646;2023-05-16T04:34:37;8.10;99.90
22249;DHT22;67538;52.180;5.646;2023-05-16T04:37:05;8.10;99.90
22249;DHT22;67538;52.180;5.646;2023-05-16T04:39:34;8.10;99.90
22249;DHT22;67538;52.180;5.646;2023-05-16T04:42:01;8.20;99.90
22249;DHT22;67538;52.180;5.646;2023-05-16T04:44:29;8.20;99.90
22249;DHT22;67538;52.180;5.646;2023-05-16T04:46:56;8.20;99.90
22249;DHT22;67538;52.180;5.646;2023-05-16T04:49:24;8.20;99.90
22249;DHT22;67538;52.180;5.646;2023-05-16T04:51:51;8.30;99.90
22249;DHT22;67538;52.180;5.646;2023-05-16T04:54:18;8.30;99.90
22249;DHT22;67538;52.180;5.646;2023-05-16T04:56:45;8.30;99.90
22249;DHT22;67538;52.180;5.646;2023-05-16T04:59:12;8.40;99.90
22249;DHT22;67538;52.180;5.646;2023-05-16T05:01:39;8.40;99.90
22249;DHT22;67538;52.180;5.646;2023-05-16T05:04:06;8.40;99.90
22249;DHT22;67538;52.180;5.646;2023-05-16T05:06:35;8.50;99.90
22249;DHT22;67538;52.180;5.646;2023-05-16T05:09:03;8.50;99.90
22249;DHT22;67538;52.180;5.646;2023-05-16T05:11:30;8.50;99.90
22249;DHT22;67538;52.180;5.646;2023-05-16T05:13:57;8.50;99.90
22249;DHT22;67538;52.180;5.646;2023-05-16T05:16:24;8.50;99.90
22249;DHT22;67538;52.180;5.646;2023-05-16T05:18:51;8.70;99.90
22249;DHT22;67538;52.180;5.646;2023-05-16T05:21:18;8.70;99.90
22249;DHT22;67538;52.180;5.646;2023-05-16T05:23:47;8.80;99.90
22249;DHT22;67538;52.180;5.646;2023-05-16T05:26:15;9.00;99.90
22249;DHT22;67538;52.180;5.646;2023-05-16T05:28:42;9.10;99.90
22249;DHT22;67538;52.180;5.646;2023-05-16T05:31:09;9.20;99.90
22249;DHT22;67538;52.180;5.646;2023-05-16T05:33:36;9.30;99.90
22249;DHT22;67538;52.180;5.646;2023-05-16T05:36:04;9.40;99.90
22249;DHT22;67538;52.180;5.646;2023-05-16T05:38:31;9.70;99.90
22249;DHT22;67538;52.180;5.646;2023-05-16T05:40:59;9.90;99.90
22249;DHT22;67538;52.180;5.646;2023-05-16T05:43:26;10.00;99.90
22249;DHT22;67538;52.180;5.646;2023-05-16T05:45:54;10.20;99.90
22249;DHT22;67538;52.180;5.646;2023-05-16T05:48:22;10.50;99.90
22249;DHT22;67538;52.180;5.646;2023-05-16T05:50:49;10.80;99.90
22249;DHT22;67538;52.180;5.646;2023-05-16T05:53:17;10.80;99.90
22249;DHT22;67538;52.180;5.646;2023-05-16T05:55:44;10.90;99.90
22249;DHT22;67538;52.180;5.646;2023-05-16T05:58:13;11.10;99.90
22249;DHT22;67538;52.180;5.646;2023-05-16T06:00:40;11.40;99.90
22249;DHT22;67538;52.180;5.646;2023-05-16T06:03:07;11.70;99.90
22249;DHT22;67538;52.180;5.646;2023-05-16T06:05:34;11.90;99.90
22249;DHT22;67538;52.180;5.646;2023-05-16T06:08:01;12.20;99.90
22249;DHT22;67538;52.180;5.646;2023-05-16T06:10:28;12.60;99.90
22249;DHT22;67538;52.180;5.646;2023-05-16T06:12:55;12.90;99.90
22249;DHT22;67538;52.180;5.646;2023-05-16T06:15:24;13.00;99.90
22249;DHT22;67538;52.180;5.646;2023-05-16T06:17:51;12.80;99.90
22249;DHT22;67538;52.180;5.646;2023-05-16T06:20:18;12.60;99.90
22249;DHT22;67538;52.180;5.646;2023-05-16T06:22:45;12.30;99.90
22249;DHT22;67538;52.180;5.646;2023-05-16T06:25:12;12.10;99.90
22249;DHT22;67538;52.180;5.646;2023-05-16T06:27:40;11.90;99.90
22249;DHT22;67538;52.180;5.646;2023-05-16T06:30:07;12.00;99.90
22249;DHT22;67538;52.180;5.646;2023-05-16T06:32:36;12.40;99.90
22249;DHT22;67538;52.180;5.646;2023-05-16T06:35:05;12.70;99.90
22249;DHT22;67538;52.180;5.646;2023-05-16T06:37:32;12.70;99.90
22249;DHT22;67538;52.180;5.646;2023-05-16T06:39:59;12.70;99.90
22249;DHT22;67538;52.180;5.646;2023-05-16T06:42:26;12.80;99.90
22249;DHT22;67538;52.180;5.646;2023-05-16T06:44:53;12.80;99.90
22249;DHT22;67538;52.180;5.646;2023-05-16T06:47:20;12.80;99.90
22249;DHT22;67538;52.180;5.646;2023-05-16T06:49:48;12.80;99.90
22249;DHT22;67538;52.180;5.646;2023-05-16T06:52:16;12.80;99.90
22249;DHT22;67538;52.180;5.646;2023-05-16T06:54:43;13.00;99.90
22249;DHT22;67538;52.180;5.646;2023-05-16T06:57:10;13.90;99.90
22249;DHT22;67538;52.180;5.646;2023-05-16T06:59:37;13.90;99.90
22249;DHT22;67538;52.180;5.646;2023-05-16T07:02:05;13.40;99.90
22249;DHT22;67538;52.180;5.646;2023-05-16T07:04:32;13.10;99.90
22249;DHT22;67538;52.180;5.646;2023-05-16T07:07:04;13.30;99.90
22249;DHT22;67538;52.180;5.646;2023-05-16T07:09:32;13.70;99.90
22249;DHT22;67538;52.180;5.646;2023-05-16T07:11:59;14.00;99.90
22249;DHT22;67538;52.180;5.646;2023-05-16T07:14:26;14.20;99.90
22249;DHT22;67538;52.180;5.646;2023-05-16T07:16:53;14.10;99.90
22249;DHT22;67538;52.180;5.646;2023-05-16T07:19:20;14.20;99.90
22249;DHT22;67538;52.180;5.646;2023-05-16T07:21:47;14.60;99.90
22249;DHT22;67538;52.180;5.646;2023-05-16T07:24:16;16.40;99.90
22249;DHT22;67538;52.180;5.646;2023-05-16T07:26:43;17.40;99.90
22249;DHT22;67538;52.180;5.646;2023-05-16T07:29:10;17.70;99.90
22249;DHT22;67538;52.180;5.646;2023-05-16T07:31:37;17.00;99.90
22249;DHT22;67538;52.180;5.646;2023-05-16T07:34:04;16.50;99.90
22249;DHT22;67538;52.180;5.646;2023-05-16T07:36:31;16.00;99.90
22249;DHT22;67538;52.180;5.646;2023-05-16T07:38:58;15.50;99.90
22249;DHT22;67538;52.180;5.646;2023-05-16T07:41:26;14.70;99.90
22249;DHT22;67538;52.180;5.646;2023-05-16T07:43:53;13.90;99.90
22249;DHT22;67538;52.180;5.646;2023-05-16T07:46:21;13.30;99.90
22249;DHT22;67538;52.180;5.646;2023-05-16T07:48:48;12.90;99.90
22249;DHT22;67538;52.180;5.646;2023-05-16T07:51:15;12.50;99.90
22249;DHT22;67538;52.180;5.646;2023-05-16T07:53:42;12.20;99.90
22249;DHT22;67538;52.180;5.646;2023-05-16T07:56:09;11.70;99.90
22249;DHT22;67538;52.180;5.646;2023-05-16T07:58:38;11.10;99.90
22249;DHT22;67538;52.180;5.646;2023-05-16T08:01:05;10.80;99.90
22249;DHT22;67538;52.180;5.646;2023-05-16T08:03:32;10.60;99.90
22249;DHT22;67538;52.180;5.646;2023-05-16T08:06:00;10.50;99.90
22249;DHT22;67538;52.180;5.646;2023-05-16T08:08:27;10.60;99.90
22249;DHT22;67538;52.180;5.646;2023-05-16T08:10:55;10.80;99.90
22249;DHT22;67538;52.180;5.646;2023-05-16T08:13:22;11.40;99.90
22249;DHT22;67538;52.180;5.646;2023-05-16T08:15:50;12.00;99.90
22249;DHT22;67538;52.180;5.646;2023-05-16T08:18:17;12.30;99.90
22249;DHT22;67538;52.180;5.646;2023-05-16T08:20:44;12.20;99.90
22249;DHT22;67538;52.180;5.646;2023-05-16T08:23:12;12.10;99.90
22249;DHT22;67538;52.180;5.646;2023-05-16T08:25:39;12.10;99.90
22249;DHT22;67538;52.180;5.646;2023-05-16T08:28:07;12.30;99.90
22249;DHT22;67538;52.180;5.646;2023-05-16T08:30:34;12.70;99.90
22249;DHT22;67538;52.180;5.646;2023-05-16T08:33:02;13.00;99.90
22249;DHT22;67538;52.180;5.646;2023-05-16T08:35:30;13.30;99.90
22249;DHT22;67538;52.180;5.646;2023-05-16T08:37:59;13.50;99.90
22249;DHT22;67538;52.180;5.646;2023-05-16T08:40:28;13.40;99.90
22249;DHT22;67538;52.180;5.646;2023-05-16T08:42:56;13.40;99.90
22249;DHT22;67538;52.180;5.646;2023-05-16T08:45:23;13.50;99.90
22249;DHT22;67538;52.180;5.646;2023-05-16T08:47:54;13.70;99.90
22249;DHT22;67538;52.180;5.646;2023-05-16T08:50:23;13.80;99.90
22249;DHT22;67538;52.180;5.646;2023-05-16T08:52:51;14.00;99.90
22249;DHT22;67538;52.180;5.646;2023-05-16T08:55:19;14.30;99.90
22249;DHT22;67538;52.180;5.646;2023-05-16T08:57:48;14.50;99.90
22249;DHT22;67538;52.180;5.646;2023-05-16T09:00:17;14.60;99.90
22249;DHT22;67538;52.180;5.646;2023-05-16T09:02:45;14.80;99.90
22249;DHT22;67538;52.180;5.646;2023-05-16T09:05:14;14.80;99.90
22249;DHT22;67538;52.180;5.646;2023-05-16T09:07:44;14.50;99.90
22249;DHT22;67538;52.180;5.646;2023-05-16T09:10:11;14.20;99.90
22249;DHT22;67538;52.180;5.646;2023-05-16T09:12:39;14.40;99.90
22249;DHT22;67538;52.180;5.646;2023-05-16T09:15:09;14.40;99.90
22249;DHT22;67538;52.180;5.646;2023-05-16T09:17:37;14.40;99.90
22249;DHT22;67538;52.180;5.646;2023-05-16T09:20:08;14.40;99.90
22249;DHT22;67538;52.180;5.646;2023-05-16T09:22:36;14.60;99.90
22249;DHT22;67538;52.180;5.646;2023-05-16T09:25:06;14.90;99.90
22249;DHT22;67538;52.180;5.646;2023-05-16T09:27:33;14.50;99.90
22249;DHT22;67538;52.180;5.646;2023-05-16T09:30:00;14.30;99.90
22249;DHT22;67538;52.180;5.646;2023-05-16T09:32:28;14.20;99.90
22249;DHT22;67538;52.180;5.646;2023-05-16T09:34:57;14.40;99.90
22249;DHT22;67538;52.180;5.646;2023-05-16T09:37:24;14.50;99.90
22249;DHT22;67538;52.180;5.646;2023-05-16T09:39:52;14.60;99.90
22249;DHT22;67538;52.180;5.646;2023-05-16T09:42:22;14.60;99.90
22249;DHT22;67538;52.180;5.646;2023-05-16T09:44:51;14.60;99.90
22249;DHT22;67538;52.180;5.646;2023-05-16T09:47:20;14.70;99.90
22249;DHT22;67538;52.180;5.646;2023-05-16T09:49:51;14.70;99.90
22249;DHT22;67538;52.180;5.646;2023-05-16T09:52:18;14.60;99.90
22249;DHT22;67538;52.180;5.646;2023-05-16T09:54:46;14.40;99.90
22249;DHT22;67538;52.180;5.646;2023-05-16T09:57:17;14.40;99.90
22249;DHT22;67538;52.180;5.646;2023-05-16T09:59:45;14.10;99.90
22249;DHT22;67538;52.180;5.646;2023-05-16T10:02:13;13.80;99.90
22249;DHT22;67538;52.180;5.646;2023-05-16T10:04:40;13.70;99.90
22249;DHT22;67538;52.180;5.646;2023-05-16T10:07:07;13.80;99.90
22249;DHT22;67538;52.180;5.646;2023-05-16T10:09:36;14.00;99.90
22249;DHT22;67538;52.180;5.646;2023-05-16T10:12:07;14.30;99.90
22249;DHT22;67538;52.180;5.646;2023-05-16T10:14:35;14.40;99.90
22249;DHT22;67538;52.180;5.646;2023-05-16T10:17:06;14.50;99.90
22249;DHT22;67538;52.180;5.646;2023-05-16T10:19:34;14.60;99.90
22249;DHT22;67538;52.180;5.646;2023-05-16T10:22:04;14.90;99.90
22249;DHT22;67538;52.180;5.646;2023-05-16T10:24:36;15.10;99.90
22249;DHT22;67538;52.180;5.646;2023-05-16T10:27:05;15.00;99.90
22249;DHT22;67538;52.180;5.646;2023-05-16T10:29:32;14.60;99.90
22249;DHT22;67538;52.180;5.646;2023-05-16T10:31:59;14.20;99.90
22249;DHT22;67538;52.180;5.646;2023-05-16T10:34:28;14.00;99.90
22249;DHT22;67538;52.180;5.646;2023-05-16T10:36:55;13.90;99.90
22249;DHT22;67538;52.180;5.646;2023-05-16T10:39:23;13.80;99.90
22249;DHT22;67538;52.180;5.646;2023-05-16T10:41:50;13.70;99.90
22249;DHT22;67538;52.180;5.646;2023-05-16T10:44:18;13.70;99.90
22249;DHT22;67538;52.180;5.646;2023-05-16T10:46:46;13.70;99.90
22249;DHT22;67538;52.180;5.646;2023-05-16T10:49:21;13.90;99.90
22249;DHT22;67538;52.180;5.646;2023-05-16T10:52:05;14.20;99.90
22249;DHT22;67538;52.180;5.646;2023-05-16T10:54:37;14.30;99.90
22249;DHT22;67538;52.180;5.646;2023-05-16T10:57:07;14.60;99.90
22249;DHT22;67538;52.180;5.646;2023-05-16T10:59:43;14.80;99.90
22249;DHT22;67538;52.180;5.646;2023-05-16T11:02:24;14.80;99.90
22249;DHT22;67538;52.180;5.646;2023-05-16T11:04:53;14.60;99.90
22249;DHT22;67538;52.180;5.646;2023-05-16T11:07:23;14.60;99.90
22249;DHT22;67538;52.180;5.646;2023-05-16T11:10:05;14.40;99.90
22249;DHT22;67538;52.180;5.646;2023-05-16T11:12:45;14.30;99.90
22249;DHT22;67538;52.180;5.646;2023-05-16T11:15:18;14.30;99.90
22249;DHT22;67538;52.180;5.646;2023-05-16T11:17:45;14.20;99.90
22249;DHT22;67538;52.180;5.646;2023-05-16T11:20:24;14.00;99.90
22249;DHT22;67538;52.180;5.646;2023-05-16T11:23:19;13.80;99.90
22249;DHT22;67538;52.180;5.646;2023-05-16T11:25:48;13.60;99.90
22249;DHT22;67538;52.180;5.646;2023-05-16T11:28:17;13.60;99.90
22249;DHT22;67538;52.180;5.646;2023-05-16T11:30:46;13.60;99.90
22249;DHT22;67538;52.180;5.646;2023-05-16T11:33:14;13.60;99.90
22249;DHT22;67538;52.180;5.646;2023-05-16T11:35:41;13.70;99.90
22249;DHT22;67538;52.180;5.646;2023-05-16T11:38:13;13.70;99.90
22249;DHT22;67538;52.180;5.646;2023-05-16T11:40:42;13.80;99.90
22249;DHT22;67538;52.180;5.646;2023-05-16T11:43:10;13.80;99.90
22249;DHT22;67538;52.180;5.646;2023-05-16T11:45:37;13.90;99.90
22249;DHT22;67538;52.180;5.646;2023-05-16T11:48:05;13.80;99.90
22249;DHT22;67538;52.180;5.646;2023-05-16T11:50:34;13.90;99.90
22249;DHT22;67538;52.180;5.646;2023-05-16T11:53:01;13.90;99.90
22249;DHT22;67538;52.180;5.646;2023-05-16T11:55:30;13.80;99.90
22249;DHT22;67538;52.180;5.646;2023-05-16T11:57:57;13.70;99.90
22249;DHT22;67538;52.180;5.646;2023-05-16T12:00:26;13.70;99.90
22249;DHT22;67538;52.180;5.646;2023-05-16T12:02:59;13.80;99.90
22249;DHT22;67538;52.180;5.646;2023-05-16T12:05:27;13.80;99.90
22249;DHT22;67538;52.180;5.646;2023-05-16T12:07:55;13.70;99.90
22249;DHT22;67538;52.180;5.646;2023-05-16T12:10:24;13.60;99.90
22249;DHT22;67538;52.180;5.646;2023-05-16T12:12:53;13.40;99.90
22249;DHT22;67538;52.180;5.646;2023-05-16T12:15:20;13.20;99.90
22249;DHT22;67538;52.180;5.646;2023-05-16T12:17:48;12.90;99.90
22249;DHT22;67538;52.180;5.646;2023-05-16T12:20:15;12.80;99.90
22249;DHT22;67538;52.180;5.646;2023-05-16T12:22:44;12.60;99.90
22249;DHT22;67538;52.180;5.646;2023-05-16T12:25:21;12.60;99.90
22249;DHT22;67538;52.180;5.646;2023-05-16T12:27:48;12.60;99.90
22249;DHT22;67538;52.180;5.646;2023-05-16T12:30:17;12.60;99.90
22249;DHT22;67538;52.180;5.646;2023-05-16T12:32:44;12.40;99.90
22249;DHT22;67538;52.180;5.646;2023-05-16T12:35:11;12.30;99.90
22249;DHT22;67538;52.180;5.646;2023-05-16T12:37:38;12.30;99.90
22249;DHT22;67538;52.180;5.646;2023-05-16T12:40:08;12.30;99.90
22249;DHT22;67538;52.180;5.646;2023-05-16T12:42:37;12.40;99.90
22249;DHT22;67538;52.180;5.646;2023-05-16T12:45:04;12.60;99.90
22249;DHT22;67538;52.180;5.646;2023-05-16T12:47:41;12.80;99.90
22249;DHT22;67538;52.180;5.646;2023-05-16T12:50:09;13.20;99.90
22249;DHT22;67538;52.180;5.646;2023-05-16T12:52:46;13.30;99.90
22249;DHT22;67538;52.180;5.646;2023-05-16T12:55:13;13.40;99.90
22249;DHT22;67538;52.180;5.646;2023-05-16T12:57:41;13.30;99.90
22249;DHT22;67538;52.180;5.646;2023-05-16T13:00:10;13.40;99.90
22249;DHT22;67538;52.180;5.646;2023-05-16T13:02:37;13.30;99.90
22249;DHT22;67538;52.180;5.646;2023-05-16T13:05:06;13.40;99.90
22249;DHT22;67538;52.180;5.646;2023-05-16T13:07:35;13.30;99.90
22249;DHT22;67538;52.180;5.646;2023-05-16T13:10:02;13.30;99.90
22249;DHT22;67538;52.180;5.646;2023-05-16T13:12:30;13.30;99.90
22249;DHT22;67538;52.180;5.646;2023-05-16T13:14:57;13.20;99.90
22249;DHT22;67538;52.180;5.646;2023-05-16T13:17:24;13.10;99.90
22249;DHT22;67538;52.180;5.646;2023-05-16T13:19:51;13.10;99.90
22249;DHT22;67538;52.180;5.646;2023-05-16T13:22:20;13.10;99.90
22249;DHT22;67538;52.180;5.646;2023-05-16T13:24:47;13.20;99.90
22249;DHT22;67538;52.180;5.646;2023-05-16T13:27:15;13.10;99.90
22249;DHT22;67538;52.180;5.646;2023-05-16T13:29:43;13.10;99.90
22249;DHT22;67538;52.180;5.646;2023-05-16T13:32:10;13.00;99.90
22249;DHT22;67538;52.180;5.646;2023-05-16T13:34:37;12.90;99.90
22249;DHT22;67538;52.180;5.646;2023-05-16T13:37:04;12.80;99.90
22249;DHT22;67538;52.180;5.646;2023-05-16T13:39:33;12.70;99.90
22249;DHT22;67538;52.180;5.646;2023-05-16T13:42:00;12.70;99.90
22249;DHT22;67538;52.180;5.646;2023-05-16T13:44:28;12.60;99.90
22249;DHT22;67538;52.180;5.646;2023-05-16T13:46:55;12.60;99.90
22249;DHT22;67538;52.180;5.646;2023-05-16T13:49:23;12.60;99.90
22249;DHT22;67538;52.180;5.646;2023-05-16T13:51:50;12.60;99.90
22249;DHT22;67538;52.180;5.646;2023-05-16T13:54:17;12.60;99.90
22249;DHT22;67538;52.180;5.646;2023-05-16T13:56:46;12.70;99.90
22249;DHT22;67538;52.180;5.646;2023-05-16T13:59:13;12.80;99.90
22249;DHT22;67538;52.180;5.646;2023-05-16T14:01:40;12.90;99.90
22249;DHT22;67538;52.180;5.646;2023-05-16T14:04:07;13.00;99.90
22249;DHT22;67538;52.180;5.646;2023-05-16T14:06:34;13.10;99.90
22249;DHT22;67538;52.180;5.646;2023-05-16T14:09:02;13.10;99.90
22249;DHT22;67538;52.180;5.646;2023-05-16T14:11:29;13.10;99.90
22249;DHT22;67538;52.180;5.646;2023-05-16T14:13:58;13.40;99.90
22249;DHT22;67538;52.180;5.646;2023-05-16T14:16:25;13.60;99.90
22249;DHT22;67538;52.180;5.646;2023-05-16T14:18:52;13.80;99.90
22249;DHT22;67538;52.180;5.646;2023-05-16T14:21:19;13.90;99.90
22249;DHT22;67538;52.180;5.646;2023-05-16T14:23:46;13.90;99.90
22249;DHT22;67538;52.180;5.646;2023-05-16T14:26:13;13.80;99.90
22249;DHT22;67538;52.180;5.646;2023-05-16T14:28:41;13.70;99.90
22249;DHT22;67538;52.180;5.646;2023-05-16T14:31:09;13.60;99.90
22249;DHT22;67538;52.180;5.646;2023-05-16T14:33:36;13.50;99.90
22249;DHT22;67538;52.180;5.646;2023-05-16T14:36:06;13.40;99.90
22249;DHT22;67538;52.180;5.646;2023-05-16T14:38:33;13.30;99.90
22249;DHT22;67538;52.180;5.646;2023-05-16T14:41:00;13.30;99.90
22249;DHT22;67538;52.180;5.646;2023-05-16T14:43:27;13.20;99.90
22249;DHT22;67538;52.180;5.646;2023-05-16T14:45:54;13.10;99.90
22249;DHT22;67538;52.180;5.646;2023-05-16T14:48:22;13.20;99.90
22249;DHT22;67538;52.180;5.646;2023-05-16T14:50:49;13.20;99.90
22249;DHT22;67538;52.180;5.646;2023-05-16T14:53:17;13.30;99.90
22249;DHT22;67538;52.180;5.646;2023-05-16T14:55:46;13.30;99.90
22249;DHT22;67538;52.180;5.646;2023-05-16T14:58:13;13.30;99.90
22249;DHT22;67538;52.180;5.646;2023-05-16T15:00:40;13.30;99.90
22249;DHT22;67538;52.180;5.646;2023-05-16T15:03:07;13.30;99.90
22249;DHT22;67538;52.180;5.646;2023-05-16T15:05:35;13.40;99.90
22249;DHT22;67538;52.180;5.646;2023-05-16T15:08:03;13.30;99.90
22249;DHT22;67538;52.180;5.646;2023-05-16T15:10:30;13.40;99.90
22249;DHT22;67538;52.180;5.646;2023-05-16T15:12:57;13.40;99.90
22249;DHT22;67538;52.180;5.646;2023-05-16T15:15:24;13.50;99.90
22249;DHT22;67538;52.180;5.646;2023-05-16T15:17:51;13.50;99.90
22249;DHT22;67538;52.180;5.646;2023-05-16T15:20:19;13.50;99.90
22249;DHT22;67538;52.180;5.646;2023-05-16T15:22:48;13.50;99.90
22249;DHT22;67538;52.180;5.646;2023-05-16T15:25:15;13.50;99.90
22249;DHT22;67538;52.180;5.646;2023-05-16T15:27:42;13.50;99.90
22249;DHT22;67538;52.180;5.646;2023-05-16T15:30:10;13.50;99.90
22249;DHT22;67538;52.180;5.646;2023-05-16T15:32:38;13.50;99.90
22249;DHT22;67538;52.180;5.646;2023-05-16T15:35:06;13.50;99.90
22249;DHT22;67538;52.180;5.646;2023-05-16T15:37:33;13.50;99.90
22249;DHT22;67538;52.180;5.646;2023-05-16T15:40:02;13.60;99.90
22249;DHT22;67538;52.180;5.646;2023-05-16T15:42:30;13.60;99.90
22249;DHT22;67538;52.180;5.646;2023-05-16T15:44:57;13.60;99.90